createdAt,value
2019-02-08T00:00:33.836Z,3.63
2019-02-08T00:03:02.638Z,3.59
2019-02-08T00:05:31.150Z,3.66
2019-02-08T00:07:59.638Z,3.61
2019-02-08T00:10:28.119Z,3.63
2019-02-08T00:12:57.105Z,3.62
2019-02-08T00:15:25.766Z,3.65
2019-02-08T00:17:54.260Z,3.65
2019-02-08T00:20:23.509Z,3.67
2019-02-08T00:22:51.956Z,3.66
2019-02-08T00:25:24.160Z,3.69
2019-02-08T00:27:52.707Z,3.66
2019-02-08T00:30:30.821Z,3.67
2019-02-08T00:32:59.386Z,3.67
2019-02-08T00:35:27.873Z,3.69
2019-02-08T00:37:56.535Z,3.66
2019-02-08T00:40:26.236Z,3.67
2019-02-08T00:42:56.599Z,3.65
2019-02-08T00:45:25.345Z,3.63
2019-02-08T00:47:53.804Z,3.62
2019-02-08T00:50:26.506Z,3.65
2019-02-08T00:52:55.620Z,3.59
2019-02-08T00:55:24.337Z,3.58
2019-02-08T00:57:52.813Z,3.61
2019-02-08T01:00:22.408Z,3.60
2019-02-08T01:02:52.743Z,3.57
2019-02-08T01:05:26.638Z,3.59
2019-02-08T01:07:55.845Z,3.55
2019-02-08T01:10:32.634Z,3.51
2019-02-08T01:13:02.231Z,3.52
2019-02-08T01:15:34.378Z,3.50
2019-02-08T01:18:02.854Z,3.50
2019-02-08T01:20:31.509Z,3.48
2019-02-08T01:23:00.080Z,3.48
2019-02-08T01:25:30.868Z,3.41
2019-02-08T01:27:59.485Z,3.42
2019-02-08T01:30:32.629Z,3.41
2019-02-08T01:33:01.534Z,3.39
2019-02-08T01:35:30.255Z,3.41
2019-02-08T01:38:00.578Z,3.39
2019-02-08T01:40:37.408Z,3.32
2019-02-08T01:43:08.328Z,3.35
2019-02-08T01:45:37.151Z,3.32
2019-02-08T01:48:07.880Z,3.28
2019-02-08T01:50:36.450Z,3.30
2019-02-08T01:53:06.844Z,3.29
2019-02-08T01:55:35.451Z,3.31
2019-02-08T01:58:04.345Z,3.30
2019-02-08T02:00:41.825Z,3.27
2019-02-08T02:03:11.022Z,3.30
2019-02-08T02:05:40.857Z,3.24
2019-02-08T02:08:09.648Z,3.26
2019-02-08T02:10:41.258Z,3.25
2019-02-08T02:13:10.876Z,3.25
2019-02-08T02:15:39.740Z,3.23
2019-02-08T02:18:08.751Z,3.17
2019-02-08T02:20:39.377Z,3.19
2019-02-08T02:23:08.880Z,3.21
2019-02-08T02:25:37.393Z,3.16
2019-02-08T02:28:06.691Z,3.16
2019-02-08T02:30:36.801Z,3.13
2019-02-08T02:33:08.126Z,3.14
2019-02-08T02:35:36.783Z,3.17
2019-02-08T02:38:06.799Z,3.13
2019-02-08T02:40:35.350Z,3.12
2019-02-08T02:43:04.580Z,3.11
2019-02-08T02:45:35.319Z,3.11
2019-02-08T02:48:04.777Z,3.09
2019-02-08T02:50:33.329Z,3.08
2019-02-08T02:53:01.821Z,3.07
2019-02-08T02:55:31.602Z,3.06
2019-02-08T02:58:00.065Z,3.05
2019-02-08T03:00:34.194Z,3.09
2019-02-08T03:03:02.766Z,3.09
2019-02-08T03:05:31.312Z,3.10
2019-02-08T03:07:59.807Z,3.07
2019-02-08T03:10:29.211Z,3.08
2019-02-08T03:12:57.714Z,3.09
2019-02-08T03:15:26.722Z,3.08
2019-02-08T03:17:55.224Z,3.08
2019-02-08T03:20:24.727Z,3.07
2019-02-08T03:22:53.669Z,3.10
2019-02-08T03:25:27.922Z,3.11
2019-02-08T03:27:56.849Z,3.07
2019-02-08T03:30:31.903Z,3.07
2019-02-08T03:33:00.417Z,3.09
2019-02-08T03:35:29.330Z,3.01
2019-02-08T03:37:57.822Z,3.05
2019-02-08T03:40:28.610Z,3.06
2019-02-08T03:42:58.549Z,3.07
2019-02-08T03:45:38.078Z,3.06
2019-02-08T03:48:07.308Z,3.08
2019-02-08T03:50:35.761Z,3.07
2019-02-08T03:53:05.298Z,3.07
2019-02-08T03:55:33.770Z,3.06
2019-02-08T03:58:02.253Z,3.05
2019-02-08T04:00:33.815Z,3.06
2019-02-08T04:03:02.380Z,3.00
2019-02-08T04:05:31.088Z,3.04
2019-02-08T04:07:59.653Z,3.09
2019-02-08T04:10:28.364Z,3.07
2019-02-08T04:12:56.858Z,3.07
2019-02-08T04:15:27.028Z,3.09
2019-02-08T04:17:55.527Z,3.07
2019-02-08T04:20:25.757Z,3.09
2019-02-08T04:22:55.285Z,3.08
2019-02-08T04:25:24.088Z,3.08
2019-02-08T04:27:52.927Z,3.08
2019-02-08T04:30:27.224Z,3.11
2019-02-08T04:32:56.447Z,3.10
2019-02-08T04:35:25.153Z,3.13
2019-02-08T04:37:53.715Z,3.12
2019-02-08T04:40:24.038Z,3.13
2019-02-08T04:42:52.597Z,3.14
2019-02-08T04:45:21.597Z,3.11
2019-02-08T04:47:50.250Z,3.15
2019-02-08T04:50:20.961Z,3.12
2019-02-08T04:52:49.522Z,3.11
2019-02-08T04:55:18.165Z,3.10
2019-02-08T04:57:46.659Z,3.08
2019-02-08T05:00:26.713Z,3.11
2019-02-08T05:02:55.203Z,3.13
2019-02-08T05:05:23.920Z,3.06
2019-02-08T05:07:52.485Z,3.09
2019-02-08T05:10:23.689Z,3.11
2019-02-08T05:12:52.358Z,3.10
2019-02-08T05:15:23.101Z,3.09
2019-02-08T05:17:51.919Z,3.07
2019-02-08T05:20:25.523Z,3.07
2019-02-08T05:22:54.450Z,3.08
2019-02-08T05:25:23.001Z,3.11
2019-02-08T05:27:52.602Z,3.09
2019-02-08T05:30:33.226Z,3.09
2019-02-08T05:33:02.099Z,3.10
2019-02-08T05:35:30.781Z,3.08
2019-02-08T05:37:59.753Z,3.04
2019-02-08T05:40:28.848Z,3.07
2019-02-08T05:42:57.343Z,3.08
2019-02-08T05:45:27.035Z,3.08
2019-02-08T05:47:55.548Z,3.06
2019-02-08T05:50:28.431Z,3.05
2019-02-08T05:52:56.994Z,3.09
2019-02-08T05:55:30.486Z,3.05
2019-02-08T05:57:59.041Z,3.09
2019-02-08T06:00:37.495Z,3.08
2019-02-08T06:03:06.890Z,3.07
2019-02-08T06:05:35.977Z,3.09
2019-02-08T06:08:05.207Z,3.06
2019-02-08T06:10:33.681Z,3.08
2019-02-08T06:13:02.247Z,3.04
2019-02-08T06:15:30.702Z,3.07
2019-02-08T06:17:59.182Z,3.05
2019-02-08T06:20:28.098Z,3.05
2019-02-08T06:22:56.787Z,3.04
2019-02-08T06:25:25.678Z,3.06
2019-02-08T06:27:54.331Z,3.04
2019-02-08T06:30:27.936Z,3.04
2019-02-08T06:32:56.681Z,3.05
2019-02-08T06:35:26.587Z,3.03
2019-02-08T06:37:55.252Z,3.07
2019-02-08T06:40:26.407Z,3.04
2019-02-08T06:42:55.218Z,3.04
2019-02-08T06:45:25.817Z,3.03
2019-02-08T06:47:54.850Z,3.02
2019-02-08T06:50:25.444Z,2.99
2019-02-08T06:52:54.466Z,3.04
2019-02-08T06:55:23.563Z,3.02
2019-02-08T06:58:10.381Z,3.03
2019-02-08T07:00:40.497Z,3.05
2019-02-08T07:03:27.023Z,3.02
2019-02-08T07:05:57.125Z,2.99
2019-02-08T07:08:27.277Z,2.99
2019-02-08T07:10:57.385Z,3.02
2019-02-08T07:13:36.463Z,3.04
2019-02-08T07:16:16.239Z,3.05
2019-02-08T07:18:51.819Z,3.04
2019-02-08T07:21:33.481Z,3.07
2019-02-08T07:26:59.969Z,3.11
2019-02-08T07:29:35.822Z,3.13
2019-02-08T07:32:24.753Z,3.15
2019-02-08T07:35:11.375Z,3.16
2019-02-08T07:37:57.302Z,3.21
2019-02-08T07:40:42.594Z,3.24
2019-02-08T07:43:13.528Z,3.28
2019-02-08T07:45:46.378Z,3.34
2019-02-08T07:48:22.813Z,3.37
2019-02-08T07:51:08.055Z,3.44
2019-02-08T07:53:38.150Z,3.56
2019-02-08T07:56:10.990Z,3.70
2019-02-08T07:58:43.535Z,3.78
2019-02-08T08:01:16.692Z,3.94
2019-02-08T08:04:03.251Z,4.05
2019-02-08T08:06:33.592Z,4.18
2019-02-08T08:09:04.261Z,4.33
2019-02-08T08:11:34.363Z,4.41
2019-02-08T08:14:20.900Z,4.51
2019-02-08T08:17:07.646Z,4.64
2019-02-08T08:19:50.407Z,4.77
2019-02-08T08:22:26.399Z,4.86
2019-02-08T08:25:14.511Z,4.97
2019-02-08T08:30:50.593Z,5.16
2019-02-08T08:33:28.083Z,5.22
2019-02-08T08:36:08.403Z,5.27
2019-02-08T08:38:42.896Z,5.35
2019-02-08T08:41:42.060Z,5.26
2019-02-08T08:44:39.421Z,5.50
2019-02-08T08:47:13.622Z,5.77
2019-02-08T08:49:45.156Z,6.02
2019-02-08T08:52:28.520Z,6.16
2019-02-08T08:55:05.618Z,6.40
2019-02-08T08:57:40.163Z,6.58
2019-02-08T09:00:29.327Z,6.79
2019-02-08T09:03:17.608Z,7.11
2019-02-08T09:06:08.592Z,7.24
2019-02-08T09:09:12.396Z,7.50
2019-02-08T09:11:55.792Z,7.75
2019-02-08T09:14:32.878Z,7.91
2019-02-08T09:17:31.936Z,8.12
2019-02-08T09:20:21.823Z,8.28
2019-02-08T09:23:08.212Z,8.49
2019-02-08T09:26:01.995Z,8.59
2019-02-08T09:28:45.736Z,8.70
2019-02-08T09:31:46.167Z,8.81
2019-02-08T09:34:32.212Z,8.91
2019-02-08T09:37:23.717Z,9.17
2019-02-08T09:40:00.836Z,9.21
2019-02-08T09:42:38.455Z,9.38
2019-02-08T09:45:12.683Z,9.47
2019-02-08T09:47:53.109Z,9.52
2019-02-08T09:50:30.425Z,9.73
2019-02-08T09:53:20.218Z,9.80
2019-02-08T09:56:10.231Z,9.95
2019-02-08T09:59:07.390Z,10.01
2019-02-08T10:01:47.718Z,10.12
2019-02-08T10:04:39.677Z,10.08
2019-02-08T10:07:32.400Z,10.25
2019-02-08T10:10:20.526Z,10.50
2019-02-08T10:13:13.204Z,10.73
2019-02-08T10:16:20.272Z,10.61
2019-02-08T10:19:17.355Z,10.71
2019-02-08T10:22:07.761Z,10.71
2019-02-08T10:25:13.906Z,10.78
2019-02-08T10:28:19.163Z,10.50
2019-02-08T10:31:16.128Z,10.30
2019-02-08T10:34:13.326Z,10.54
2019-02-08T10:37:18.298Z,10.55
2019-02-08T10:40:18.614Z,10.72
2019-02-08T10:42:50.138Z,10.56
2019-02-08T10:45:30.784Z,10.48
2019-02-08T10:48:11.369Z,10.57
2019-02-08T10:51:16.623Z,10.70
2019-02-08T10:54:22.757Z,10.53
2019-02-08T10:57:18.682Z,10.58
2019-02-08T10:59:53.038Z,10.47
2019-02-08T11:02:48.220Z,10.39
2019-02-08T11:05:46.593Z,10.36
2019-02-08T11:08:21.028Z,10.17
2019-02-08T11:11:23.060Z,10.03
2019-02-08T11:14:23.395Z,10.27
2019-02-08T11:16:57.579Z,10.28
2019-02-08T11:19:24.888Z,10.16
2019-02-08T11:21:53.627Z,10.10
2019-02-08T11:24:23.234Z,9.87
2019-02-08T11:26:51.892Z,9.77
2019-02-08T11:29:20.423Z,9.85
2019-02-08T11:31:49.191Z,9.70
2019-02-08T11:34:17.646Z,9.96
2019-02-08T11:36:46.198Z,9.88
2019-02-08T11:39:18.598Z,9.71
2019-02-08T11:41:48.032Z,9.79
2019-02-08T11:44:17.134Z,9.78
2019-02-08T11:46:45.689Z,9.89
2019-02-08T11:49:14.475Z,9.95
2019-02-08T11:51:43.026Z,9.93
2019-02-08T11:54:13.081Z,10.02
2019-02-08T11:56:41.629Z,9.98
2019-02-08T11:59:10.169Z,9.81
2019-02-08T12:01:40.414Z,9.86
2019-02-08T12:04:09.151Z,9.96
2019-02-08T12:06:37.707Z,9.84
2019-02-08T12:09:09.470Z,9.87
2019-02-08T12:11:37.950Z,10.02
2019-02-08T12:14:06.738Z,9.90
2019-02-08T12:16:35.244Z,9.86
2019-02-08T12:19:04.063Z,9.83
2019-02-08T12:21:32.542Z,9.85
2019-02-08T12:24:00.997Z,9.72
2019-02-08T12:26:29.477Z,9.89
2019-02-08T12:28:57.935Z,9.82
2019-02-08T12:31:26.418Z,9.78
2019-02-08T12:33:54.900Z,9.84
2019-02-08T12:36:23.480Z,9.70
2019-02-08T12:38:51.960Z,9.61
2019-02-08T12:41:20.396Z,9.71
2019-02-08T12:43:48.888Z,9.70
2019-02-08T12:46:17.362Z,9.66
2019-02-08T12:48:45.840Z,9.64
2019-02-08T12:51:14.300Z,9.66
2019-02-08T12:53:42.777Z,9.65
2019-02-08T12:56:11.233Z,9.75
2019-02-08T12:58:39.716Z,9.64
2019-02-08T13:01:08.193Z,9.56
2019-02-08T13:03:36.676Z,9.55
2019-02-08T13:06:05.567Z,9.32
2019-02-08T13:08:34.049Z,9.42
2019-02-08T13:11:02.492Z,9.40
2019-02-08T13:13:30.966Z,9.37
2019-02-08T13:15:59.428Z,9.32
2019-02-08T13:18:27.897Z,9.38
2019-02-08T13:20:56.359Z,9.32
2019-02-08T13:23:25.781Z,9.39
2019-02-08T13:25:54.240Z,9.34
2019-02-08T13:28:22.721Z,9.40
2019-02-08T13:30:51.176Z,9.36
2019-02-08T13:33:19.662Z,9.32
2019-02-08T13:35:48.121Z,9.27
2019-02-08T13:38:16.605Z,9.37
2019-02-08T13:40:45.302Z,9.27
2019-02-08T13:43:13.833Z,9.36
2019-02-08T13:45:42.355Z,9.36
2019-02-08T13:48:10.982Z,9.33
2019-02-08T13:50:39.441Z,9.30
2019-02-08T13:53:08.102Z,9.36
2019-02-08T13:55:36.582Z,9.24
2019-02-08T13:58:06.199Z,9.23
2019-02-08T14:00:39.645Z,9.25
2019-02-08T14:03:09.427Z,9.26
2019-02-08T14:05:38.062Z,9.23
2019-02-08T14:08:07.244Z,9.20
2019-02-08T14:10:35.714Z,9.14
2019-02-08T14:13:05.049Z,9.13
2019-02-08T14:15:34.579Z,9.17
2019-02-08T14:18:03.034Z,9.05
2019-02-08T14:20:31.590Z,9.06
2019-02-08T14:23:00.047Z,9.04
2019-02-08T14:25:28.605Z,9.02
2019-02-08T14:27:57.059Z,9.07
2019-02-08T14:30:28.584Z,9.00
2019-02-08T14:32:57.116Z,8.93
2019-02-08T14:35:25.949Z,8.98
2019-02-08T14:37:55.155Z,8.88
2019-02-08T14:40:24.978Z,8.89
2019-02-08T14:42:54.085Z,8.84
2019-02-08T14:45:22.634Z,8.80
2019-02-08T14:47:51.085Z,8.74
2019-02-08T14:50:22.170Z,8.75
2019-02-08T14:52:51.318Z,8.71
2019-02-08T14:55:20.341Z,8.70
2019-02-08T14:57:49.465Z,8.64
2019-02-08T15:00:20.992Z,8.63
2019-02-08T15:02:49.463Z,8.65
2019-02-08T15:05:22.305Z,8.60
2019-02-08T15:07:50.767Z,8.57
2019-02-08T15:10:30.300Z,8.57
2019-02-08T15:13:00.381Z,8.61
2019-02-08T15:15:29.021Z,8.59
2019-02-08T15:17:57.486Z,8.58
2019-02-08T15:20:28.735Z,8.54
2019-02-08T15:22:57.189Z,8.47
2019-02-08T15:25:25.754Z,8.48
2019-02-08T15:27:54.207Z,8.46
2019-02-08T15:30:31.566Z,8.46
2019-02-08T15:33:00.020Z,8.39
2019-02-08T15:35:30.341Z,8.38
2019-02-08T15:37:59.061Z,8.38
2019-02-08T15:40:39.369Z,8.33
2019-02-08T15:43:08.976Z,8.32
2019-02-08T15:45:37.991Z,8.28
2019-02-08T15:48:06.585Z,8.32
2019-02-08T15:50:35.065Z,8.29
2019-02-08T15:53:03.603Z,8.26
2019-02-08T15:55:35.176Z,8.15
2019-02-08T15:58:03.912Z,8.17
2019-02-08T16:00:32.561Z,8.13
2019-02-08T16:03:01.347Z,8.11
2019-02-08T16:05:31.581Z,8.10
2019-02-08T16:08:00.214Z,8.07
2019-02-08T16:10:28.950Z,8.06
2019-02-08T16:12:57.610Z,8.07
2019-02-08T16:15:28.510Z,8.08
2019-02-08T16:17:58.369Z,8.09
2019-02-08T16:20:30.972Z,8.08
2019-02-08T16:23:00.475Z,8.08
2019-02-08T16:25:30.868Z,8.07
2019-02-08T16:27:59.688Z,8.04
2019-02-08T16:30:37.213Z,8.04
2019-02-08T16:33:07.640Z,8.04
2019-02-08T16:35:36.095Z,8.05
2019-02-08T16:38:05.729Z,8.07
2019-02-08T16:40:34.732Z,8.13
2019-02-08T16:43:03.206Z,8.12
2019-02-08T16:45:36.887Z,8.16
2019-02-08T16:48:11.431Z,8.17
2019-02-08T16:50:40.768Z,8.20
2019-02-08T16:53:10.525Z,8.12
2019-02-08T16:55:39.850Z,8.09
2019-02-08T16:58:09.781Z,8.09
2019-02-08T17:00:39.681Z,8.07
2019-02-08T17:03:12.911Z,8.09
2019-02-08T17:05:42.223Z,8.08
2019-02-08T17:08:12.805Z,8.05
2019-02-08T17:10:41.542Z,8.07
2019-02-08T17:13:10.157Z,8.05
2019-02-08T17:15:38.802Z,8.07
2019-02-08T17:18:08.309Z,8.06
2019-02-08T17:20:45.414Z,8.04
2019-02-08T17:23:13.983Z,8.00
2019-02-08T17:25:42.621Z,7.99
2019-02-08T17:28:11.646Z,8.00
2019-02-08T17:30:40.404Z,8.00
2019-02-08T17:33:09.936Z,8.01
2019-02-08T17:35:38.830Z,7.93
2019-02-08T17:38:07.571Z,7.98
2019-02-08T17:40:49.749Z,7.96
2019-02-08T17:43:18.239Z,7.98
2019-02-08T17:45:46.702Z,7.97
2019-02-08T17:48:16.425Z,7.96
2019-02-08T17:50:44.893Z,7.90
2019-02-08T17:53:13.380Z,7.90
2019-02-08T17:55:41.866Z,7.86
2019-02-08T17:58:10.352Z,7.89
2019-02-08T18:00:43.041Z,7.87
2019-02-08T18:03:11.523Z,7.84
2019-02-08T18:05:40.049Z,7.83
2019-02-08T18:08:08.787Z,7.84
2019-02-08T18:10:37.307Z,7.73
2019-02-08T18:13:06.234Z,7.73
2019-02-08T18:15:34.756Z,7.66
2019-02-08T18:18:05.086Z,7.74
2019-02-08T18:20:51.648Z,7.69
2019-02-08T18:23:20.268Z,7.74
2019-02-08T18:25:48.731Z,7.67
2019-02-08T18:28:17.228Z,7.68
2019-02-08T18:30:45.696Z,7.66
2019-02-08T18:33:14.225Z,7.63
2019-02-08T18:35:42.661Z,7.50
2019-02-08T18:38:11.293Z,7.52
2019-02-08T18:40:39.828Z,7.46
2019-02-08T18:43:08.319Z,7.36
2019-02-08T18:45:37.723Z,7.41
2019-02-08T18:48:07.067Z,7.41
2019-02-08T18:50:37.963Z,7.42
2019-02-08T18:53:07.094Z,7.34
2019-02-08T18:55:35.610Z,7.32
2019-02-08T18:58:04.574Z,7.33
2019-02-08T19:00:39.965Z,7.25
2019-02-08T19:03:06.606Z,7.15
2019-02-08T19:05:35.303Z,7.08
2019-02-08T19:08:04.229Z,7.07
2019-02-08T19:10:32.710Z,6.97
2019-02-08T19:13:01.166Z,6.95
2019-02-08T19:15:30.122Z,6.94
2019-02-08T19:17:58.574Z,6.91
2019-02-08T19:20:28.992Z,6.90
2019-02-08T19:22:57.715Z,6.82
2019-02-08T19:25:34.457Z,6.86
2019-02-08T19:28:02.991Z,6.82
2019-02-08T19:30:34.409Z,6.78
2019-02-08T19:33:02.873Z,6.79
2019-02-08T19:35:31.413Z,6.74
2019-02-08T19:38:00.002Z,6.69
2019-02-08T19:40:30.730Z,6.67
2019-02-08T19:42:59.326Z,6.59
2019-02-08T19:45:28.042Z,6.59
2019-02-08T19:47:56.486Z,6.62
2019-02-08T19:50:27.548Z,6.62
2019-02-08T19:52:56.013Z,6.53
2019-02-08T19:55:24.939Z,6.55
2019-02-08T19:57:53.396Z,6.51
2019-02-08T20:00:33.644Z,6.48
2019-02-08T20:03:02.775Z,6.55
2019-02-08T20:05:31.309Z,6.54
2019-02-08T20:07:59.840Z,6.51
2019-02-08T20:10:30.676Z,6.52
2019-02-08T20:12:59.703Z,6.53
2019-02-08T20:15:28.731Z,6.52
2019-02-08T20:17:57.199Z,6.51
2019-02-08T20:20:25.762Z,6.51
2019-02-08T20:22:54.553Z,6.47
2019-02-08T20:25:28.379Z,6.50
2019-02-08T20:27:56.863Z,6.52
2019-02-08T20:30:27.182Z,6.52
2019-02-08T20:32:55.788Z,6.50
2019-02-08T20:35:25.999Z,6.58
2019-02-08T20:37:54.997Z,6.61
2019-02-08T20:40:25.728Z,6.63
2019-02-08T20:42:54.185Z,6.72
2019-02-08T20:45:27.956Z,6.72
2019-02-08T20:47:57.152Z,6.72
2019-02-08T20:50:25.976Z,6.75
2019-02-08T20:52:54.877Z,6.75
2019-02-08T20:55:24.198Z,6.77
2019-02-08T20:57:52.721Z,6.77
2019-02-08T21:00:36.115Z,6.80
2019-02-08T21:03:07.536Z,6.82
2019-02-08T21:05:36.146Z,6.81
2019-02-08T21:08:06.542Z,6.82
2019-02-08T21:10:35.770Z,6.82
2019-02-08T21:13:05.763Z,6.79
2019-02-08T21:15:34.579Z,6.84
2019-02-08T21:18:03.137Z,6.81
2019-02-08T21:20:31.612Z,6.83
2019-02-08T21:23:00.070Z,6.80
2019-02-08T21:25:31.235Z,6.82
2019-02-08T21:27:59.788Z,6.80
2019-02-08T21:30:28.441Z,6.76
2019-02-08T21:32:58.495Z,6.79
2019-02-08T21:35:27.282Z,6.76
2019-02-08T21:37:55.728Z,6.76
2019-02-08T21:40:26.837Z,6.74
2019-02-08T21:42:57.270Z,6.68
2019-02-08T21:45:31.294Z,6.71
2019-02-08T21:48:00.010Z,6.69
2019-02-08T21:50:29.063Z,6.64
2019-02-08T21:52:57.594Z,6.60
2019-02-08T21:55:27.811Z,6.62
2019-02-08T21:57:56.284Z,6.61
2019-02-08T22:00:30.286Z,6.61
2019-02-08T22:02:59.608Z,6.58
2019-02-08T22:05:36.483Z,6.61
2019-02-08T22:08:05.629Z,6.51
2019-02-08T22:10:34.111Z,6.57
2019-02-08T22:13:02.718Z,6.54
2019-02-08T22:15:42.749Z,6.55
2019-02-08T22:18:11.211Z,6.51
2019-02-08T22:20:40.078Z,6.49
2019-02-08T22:23:09.062Z,6.47
2019-02-08T22:25:37.801Z,6.47
2019-02-08T22:28:07.304Z,6.49
2019-02-08T22:30:36.341Z,6.44
2019-02-08T22:33:10.386Z,6.46
2019-02-08T22:35:39.208Z,6.41
2019-02-08T22:38:09.045Z,6.40
2019-02-08T22:40:37.987Z,6.36
2019-02-08T22:43:06.980Z,6.31
2019-02-08T22:45:42.837Z,6.32
2019-02-08T22:48:12.774Z,6.28
2019-02-08T22:50:41.256Z,6.27
2019-02-08T22:53:10.067Z,6.29
2019-02-08T22:55:38.729Z,6.29
2019-02-08T22:58:08.821Z,6.20
2019-02-08T23:00:40.835Z,6.15
2019-02-08T23:03:11.034Z,6.17
2019-02-08T23:05:45.416Z,6.10
2019-02-08T23:08:11.116Z,6.11
2019-02-08T23:10:40.349Z,6.08
2019-02-08T23:13:09.684Z,6.07
2019-02-08T23:15:38.506Z,6.07
2019-02-08T23:18:08.838Z,6.00
2019-02-08T23:20:37.650Z,6.01
2019-02-08T23:23:06.951Z,6.02
2019-02-08T23:25:35.431Z,6.04
2019-02-08T23:28:04.360Z,6.02
2019-02-08T23:30:32.834Z,6.03
2019-02-08T23:33:01.292Z,6.06
2019-02-08T23:35:29.777Z,6.03
2019-02-08T23:37:58.247Z,6.02
2019-02-08T23:40:26.735Z,6.05
2019-02-08T23:42:55.200Z,6.06
2019-02-08T23:45:24.208Z,6.05
2019-02-08T23:47:52.657Z,6.03
2019-02-08T23:50:25.405Z,6.05
2019-02-08T23:52:54.604Z,6.04
2019-02-08T23:55:27.325Z,6.05
2019-02-08T23:57:55.856Z,6.01
